sensor_id;sensor_type;location;lat;lon;timestamp;temperature;humidity
41924;DHT22;27613;48.116;11.656;2022-11-15T00:00:16;3.10;99.90
41924;DHT22;27613;48.116;11.656;2022-11-15T00:02:42;3.10;99.90
41924;DHT22;27613;48.116;11.656;2022-11-15T00:05:07;3.00;99.90
41924;DHT22;27613;48.116;11.656;2022-11-15T00:07:33;3.00;99.90
41924;DHT22;27613;48.116;11.656;2022-11-15T00:09:59;3.00;99.90
41924;DHT22;27613;48.116;11.656;2022-11-15T00:12:24;3.00;99.90
41924;DHT22;27613;48.116;11.656;2022-11-15T00:14:50;3.00;99.90
41924;DHT22;27613;48.116;11.656;2022-11-15T00:17:15;3.00;99.90
41924;DHT22;27613;48.116;11.656;2022-11-15T00:19:41;2.90;99.90
41924;DHT22;27613;48.116;11.656;2022-11-15T00:22:06;2.90;99.90
41924;DHT22;27613;48.116;11.656;2022-11-15T00:24:32;2.90;99.90
41924;DHT22;27613;48.116;11.656;2022-11-15T00:26:57;2.90;99.90
41924;DHT22;27613;48.116;11.656;2022-11-15T00:29:23;2.90;99.90
41924;DHT22;27613;48.116;11.656;2022-11-15T00:31:48;2.90;99.90
41924;DHT22;27613;48.116;11.656;2022-11-15T00:34:14;2.90;99.90
41924;DHT22;27613;48.116;11.656;2022-11-15T00:36:39;2.80;99.90
41924;DHT22;27613;48.116;11.656;2022-11-15T00:39:05;2.80;99.90
41924;DHT22;27613;48.116;11.656;2022-11-15T00:41:31;2.80;99.90
41924;DHT22;27613;48.116;11.656;2022-11-15T00:43:56;2.70;99.90
41924;DHT22;27613;48.116;11.656;2022-11-15T00:46:22;2.70;99.90
41924;DHT22;27613;48.116;11.656;2022-11-15T00:48:48;2.70;99.90
41924;DHT22;27613;48.116;11.656;2022-11-15T00:51:13;2.60;99.90
41924;DHT22;27613;48.116;11.656;2022-11-15T00:53:39;2.50;99.90
41924;DHT22;27613;48.116;11.656;2022-11-15T00:56:04;2.50;99.90
41924;DHT22;27613;48.116;11.656;2022-11-15T00:58:30;2.40;99.90
41924;DHT22;27613;48.116;11.656;2022-11-15T01:00:56;2.40;99.90
41924;DHT22;27613;48.116;11.656;2022-11-15T01:03:21;2.40;99.90
41924;DHT22;27613;48.116;11.656;2022-11-15T01:05:47;2.30;99.90
41924;DHT22;27613;48.116;11.656;2022-11-15T01:08:14;2.30;99.90
41924;DHT22;27613;48.116;11.656;2022-11-15T01:10:40;2.40;99.90
41924;DHT22;27613;48.116;11.656;2022-11-15T01:13:05;2.40;99.90
41924;DHT22;27613;48.116;11.656;2022-11-15T01:15:31;2.30;99.90
41924;DHT22;27613;48.116;11.656;2022-11-15T01:17:56;2.30;99.90
41924;DHT22;27613;48.116;11.656;2022-11-15T01:20:22;2.30;99.90
41924;DHT22;27613;48.116;11.656;2022-11-15T01:22:47;2.30;99.90
41924;DHT22;27613;48.116;11.656;2022-11-15T01:25:13;2.20;99.90
41924;DHT22;27613;48.116;11.656;2022-11-15T01:27:39;2.20;99.90
41924;DHT22;27613;48.116;11.656;2022-11-15T01:30:05;2.20;99.90
41924;DHT22;27613;48.116;11.656;2022-11-15T01:32:31;2.10;99.90
41924;DHT22;27613;48.116;11.656;2022-11-15T01:34:56;2.10;99.90
41924;DHT22;27613;48.116;11.656;2022-11-15T01:37:22;2.10;99.90
41924;DHT22;27613;48.116;11.656;2022-11-15T01:39:47;2.10;99.90
41924;DHT22;27613;48.116;11.656;2022-11-15T01:42:13;2.00;99.90
41924;DHT22;27613;48.116;11.656;2022-11-15T01:44:51;2.00;99.90
41924;DHT22;27613;48.116;11.656;2022-11-15T01:47:24;2.00;99.90
41924;DHT22;27613;48.116;11.656;2022-11-15T01:50:04;2.10;99.90
41924;DHT22;27613;48.116;11.656;2022-11-15T01:52:33;2.10;99.90
41924;DHT22;27613;48.116;11.656;2022-11-15T01:55:21;2.10;99.90
41924;DHT22;27613;48.116;11.656;2022-11-15T01:57:50;2.00;99.90
41924;DHT22;27613;48.116;11.656;2022-11-15T02:00:17;2.00;99.90
41924;DHT22;27613;48.116;11.656;2022-11-15T02:02:43;1.90;99.90
41924;DHT22;27613;48.116;11.656;2022-11-15T02:05:08;1.90;99.90
41924;DHT22;27613;48.116;11.656;2022-11-15T02:07:35;1.90;99.90
41924;DHT22;27613;48.116;11.656;2022-11-15T02:10:18;1.90;99.90
41924;DHT22;27613;48.116;11.656;2022-11-15T02:12:45;1.80;99.90
41924;DHT22;27613;48.116;11.656;2022-11-15T02:15:11;1.90;99.90
41924;DHT22;27613;48.116;11.656;2022-11-15T02:17:55;1.90;99.90
41924;DHT22;27613;48.116;11.656;2022-11-15T02:20:51;1.80;99.90
41924;DHT22;27613;48.116;11.656;2022-11-15T02:24:02;1.80;99.90
41924;DHT22;27613;48.116;11.656;2022-11-15T02:26:51;1.80;99.90
41924;DHT22;27613;48.116;11.656;2022-11-15T02:37:52;1.90;99.90
41924;DHT22;27613;48.116;11.656;2022-11-15T02:40:34;1.80;99.90
41924;DHT22;27613;48.116;11.656;2022-11-15T02:43:12;1.80;99.90
41924;DHT22;27613;48.116;11.656;2022-11-15T02:49:16;1.60;99.90
41924;DHT22;27613;48.116;11.656;2022-11-15T02:51:43;1.60;99.90
41924;DHT22;27613;48.116;11.656;2022-11-15T02:54:17;1.60;99.90
41924;DHT22;27613;48.116;11.656;2022-11-15T02:56:45;1.60;99.90
41924;DHT22;27613;48.116;11.656;2022-11-15T03:04:58;1.60;99.90
41924;DHT22;27613;48.116;11.656;2022-11-15T03:07:29;1.50;99.90
41924;DHT22;27613;48.116;11.656;2022-11-15T03:10:24;1.50;99.90
41924;DHT22;27613;48.116;11.656;2022-11-15T03:13:13;1.50;99.90
41924;DHT22;27613;48.116;11.656;2022-11-15T03:15:50;1.40;99.90
41924;DHT22;27613;48.116;11.656;2022-11-15T03:18:23;1.40;99.90
41924;DHT22;27613;48.116;11.656;2022-11-15T03:20:52;1.30;99.90
41924;DHT22;27613;48.116;11.656;2022-11-15T03:23:19;1.30;99.90
41924;DHT22;27613;48.116;11.656;2022-11-15T03:25:47;1.30;99.90
41924;DHT22;27613;48.116;11.656;2022-11-15T03:28:25;1.20;99.90
41924;DHT22;27613;48.116;11.656;2022-11-15T03:30:54;1.10;99.90
41924;DHT22;27613;48.116;11.656;2022-11-15T03:33:21;1.10;99.90
41924;DHT22;27613;48.116;11.656;2022-11-15T03:35:47;1.10;99.90
41924;DHT22;27613;48.116;11.656;2022-11-15T03:38:25;1.00;99.90
41924;DHT22;27613;48.116;11.656;2022-11-15T03:41:33;1.10;99.90
41924;DHT22;27613;48.116;11.656;2022-11-15T03:44:45;1.00;99.90
41924;DHT22;27613;48.116;11.656;2022-11-15T03:47:32;1.00;99.90
41924;DHT22;27613;48.116;11.656;2022-11-15T03:50:10;1.00;99.90
41924;DHT22;27613;48.116;11.656;2022-11-15T03:52:40;1.00;99.90
41924;DHT22;27613;48.116;11.656;2022-11-15T03:55:12;1.00;99.90
41924;DHT22;27613;48.116;11.656;2022-11-15T03:57:41;1.00;99.90
41924;DHT22;27613;48.116;11.656;2022-11-15T04:03:55;0.90;99.90
41924;DHT22;27613;48.116;11.656;2022-11-15T04:10:20;0.90;99.90
41924;DHT22;27613;48.116;11.656;2022-11-15T04:13:01;0.80;99.90
41924;DHT22;27613;48.116;11.656;2022-11-15T04:15:30;0.90;99.90
41924;DHT22;27613;48.116;11.656;2022-11-15T04:21:12;0.80;99.90
41924;DHT22;27613;48.116;11.656;2022-11-15T04:24:00;0.90;99.90
41924;DHT22;27613;48.116;11.656;2022-11-15T04:26:47;0.90;99.90
41924;DHT22;27613;48.116;11.656;2022-11-15T04:29:31;0.90;99.90
41924;DHT22;27613;48.116;11.656;2022-11-15T04:32:07;0.80;99.90
41924;DHT22;27613;48.116;11.656;2022-11-15T04:37:24;0.80;99.90
41924;DHT22;27613;48.116;11.656;2022-11-15T04:39:55;0.80;99.90
41924;DHT22;27613;48.116;11.656;2022-11-15T04:42:21;0.70;99.90
41924;DHT22;27613;48.116;11.656;2022-11-15T04:44:55;0.70;99.90
41924;DHT22;27613;48.116;11.656;2022-11-15T04:47:27;0.70;99.90
41924;DHT22;27613;48.116;11.656;2022-11-15T04:50:14;0.70;99.90
41924;DHT22;27613;48.116;11.656;2022-11-15T04:52:55;0.70;99.90
41924;DHT22;27613;48.116;11.656;2022-11-15T04:55:44;0.70;99.90
41924;DHT22;27613;48.116;11.656;2022-11-15T04:58:15;0.70;99.90
41924;DHT22;27613;48.116;11.656;2022-11-15T05:00:58;0.80;99.90
41924;DHT22;27613;48.116;11.656;2022-11-15T05:03:58;0.70;99.90
41924;DHT22;27613;48.116;11.656;2022-11-15T05:06:43;0.70;99.90
41924;DHT22;27613;48.116;11.656;2022-11-15T05:09:14;0.60;99.90
41924;DHT22;27613;48.116;11.656;2022-11-15T05:11:51;0.60;99.90
41924;DHT22;27613;48.116;11.656;2022-11-15T05:14:19;0.60;99.90
41924;DHT22;27613;48.116;11.656;2022-11-15T05:16:56;0.50;99.90
41924;DHT22;27613;48.116;11.656;2022-11-15T05:19:42;0.50;99.90
41924;DHT22;27613;48.116;11.656;2022-11-15T05:22:11;0.50;99.90
41924;DHT22;27613;48.116;11.656;2022-11-15T05:24:39;0.50;99.90
41924;DHT22;27613;48.116;11.656;2022-11-15T05:27:05;0.50;99.90
41924;DHT22;27613;48.116;11.656;2022-11-15T05:29:30;0.40;99.90
41924;DHT22;27613;48.116;11.656;2022-11-15T05:31:56;0.40;99.90
41924;DHT22;27613;48.116;11.656;2022-11-15T05:34:22;0.40;99.90
41924;DHT22;27613;48.116;11.656;2022-11-15T05:36:50;0.40;99.90
41924;DHT22;27613;48.116;11.656;2022-11-15T05:39:20;0.40;99.90
41924;DHT22;27613;48.116;11.656;2022-11-15T05:42:09;0.50;99.90
41924;DHT22;27613;48.116;11.656;2022-11-15T05:44:43;0.50;99.90
41924;DHT22;27613;48.116;11.656;2022-11-15T05:47:22;0.60;99.90
41924;DHT22;27613;48.116;11.656;2022-11-15T05:49:59;0.70;99.90
41924;DHT22;27613;48.116;11.656;2022-11-15T05:52:37;0.70;99.90
41924;DHT22;27613;48.116;11.656;2022-11-15T05:55:16;0.70;99.90
41924;DHT22;27613;48.116;11.656;2022-11-15T05:57:54;0.70;99.90
41924;DHT22;27613;48.116;11.656;2022-11-15T06:00:28;0.60;99.90
41924;DHT22;27613;48.116;11.656;2022-11-15T06:02:56;0.70;99.90
41924;DHT22;27613;48.116;11.656;2022-11-15T06:05:22;0.80;99.90
41924;DHT22;27613;48.116;11.656;2022-11-15T06:07:56;0.80;99.90
41924;DHT22;27613;48.116;11.656;2022-11-15T06:10:25;0.90;99.90
41924;DHT22;27613;48.116;11.656;2022-11-15T06:13:06;0.90;99.90
41924;DHT22;27613;48.116;11.656;2022-11-15T06:15:40;0.90;99.90
41924;DHT22;27613;48.116;11.656;2022-11-15T06:18:09;0.80;99.90
41924;DHT22;27613;48.116;11.656;2022-11-15T06:20:37;0.70;99.90
41924;DHT22;27613;48.116;11.656;2022-11-15T06:23:12;0.70;99.90
41924;DHT22;27613;48.116;11.656;2022-11-15T06:25:38;0.70;99.90
41924;DHT22;27613;48.116;11.656;2022-11-15T06:28:08;0.70;99.90
41924;DHT22;27613;48.116;11.656;2022-11-15T06:30:42;0.70;99.90
41924;DHT22;27613;48.116;11.656;2022-11-15T06:33:17;0.70;99.90
41924;DHT22;27613;48.116;11.656;2022-11-15T06:35:53;0.70;99.90
41924;DHT22;27613;48.116;11.656;2022-11-15T06:38:34;0.80;99.90
41924;DHT22;27613;48.116;11.656;2022-11-15T06:41:14;0.90;99.90
41924;DHT22;27613;48.116;11.656;2022-11-15T06:43:46;0.90;99.90
41924;DHT22;27613;48.116;11.656;2022-11-15T06:46:11;0.90;99.90
41924;DHT22;27613;48.116;11.656;2022-11-15T06:48:45;0.90;99.90
41924;DHT22;27613;48.116;11.656;2022-11-15T06:51:22;0.90;99.90
41924;DHT22;27613;48.116;11.656;2022-11-15T06:53:59;1.00;99.90
41924;DHT22;27613;48.116;11.656;2022-11-15T06:56:33;1.10;99.90
41924;DHT22;27613;48.116;11.656;2022-11-15T06:59:01;1.10;99.90
41924;DHT22;27613;48.116;11.656;2022-11-15T07:01:38;1.20;99.90
41924;DHT22;27613;48.116;11.656;2022-11-15T07:04:06;1.30;99.90
41924;DHT22;27613;48.116;11.656;2022-11-15T07:06:45;1.40;99.90
41924;DHT22;27613;48.116;11.656;2022-11-15T07:09:11;1.50;99.90
41924;DHT22;27613;48.116;11.656;2022-11-15T07:11:37;1.70;99.90
41924;DHT22;27613;48.116;11.656;2022-11-15T07:17:04;4.10;99.90
41924;DHT22;27613;48.116;11.656;2022-11-15T07:19:34;4.80;99.90
41924;DHT22;27613;48.116;11.656;2022-11-15T07:22:03;4.90;99.90
41924;DHT22;27613;48.116;11.656;2022-11-15T07:24:41;6.60;99.90
41924;DHT22;27613;48.116;11.656;2022-11-15T07:27:09;8.50;95.10
41924;DHT22;27613;48.116;11.656;2022-11-15T07:29:40;9.20;88.50
41924;DHT22;27613;48.116;11.656;2022-11-15T07:32:11;9.90;84.40
41924;DHT22;27613;48.116;11.656;2022-11-15T07:34:40;10.60;79.90
41924;DHT22;27613;48.116;11.656;2022-11-15T07:37:11;10.70;79.10
41924;DHT22;27613;48.116;11.656;2022-11-15T07:39:49;11.00;78.50
41924;DHT22;27613;48.116;11.656;2022-11-15T07:42:25;11.50;75.00
41924;DHT22;27613;48.116;11.656;2022-11-15T07:47:58;11.40;76.30
41924;DHT22;27613;48.116;11.656;2022-11-15T07:50:32;12.50;72.10
41924;DHT22;27613;48.116;11.656;2022-11-15T07:56:41;12.80;69.10
41924;DHT22;27613;48.116;11.656;2022-11-15T07:59:12;13.90;67.50
41924;DHT22;27613;48.116;11.656;2022-11-15T08:01:51;15.80;62.70
41924;DHT22;27613;48.116;11.656;2022-11-15T08:04:45;16.80;59.40
41924;DHT22;27613;48.116;11.656;2022-11-15T08:07:38;18.70;55.90
41924;DHT22;27613;48.116;11.656;2022-11-15T08:10:42;19.50;53.70
41924;DHT22;27613;48.116;11.656;2022-11-15T08:13:16;19.90;52.20
41924;DHT22;27613;48.116;11.656;2022-11-15T08:16:02;18.80;52.30
41924;DHT22;27613;48.116;11.656;2022-11-15T08:18:41;18.10;53.30
41924;DHT22;27613;48.116;11.656;2022-11-15T08:21:09;16.50;57.60
41924;DHT22;27613;48.116;11.656;2022-11-15T08:23:50;17.50;55.50
41924;DHT22;27613;48.116;11.656;2022-11-15T08:26:18;18.30;53.80
41924;DHT22;27613;48.116;11.656;2022-11-15T08:32:13;20.20;51.30
41924;DHT22;27613;48.116;11.656;2022-11-15T08:37:49;21.70;49.40
41924;DHT22;27613;48.116;11.656;2022-11-15T08:40:16;21.60;49.00
41924;DHT22;27613;48.116;11.656;2022-11-15T08:42:41;21.20;49.30
41924;DHT22;27613;48.116;11.656;2022-11-15T08:45:08;21.90;48.70
41924;DHT22;27613;48.116;11.656;2022-11-15T08:47:34;22.70;47.90
41924;DHT22;27613;48.116;11.656;2022-11-15T08:50:00;23.30;47.10
41924;DHT22;27613;48.116;11.656;2022-11-15T08:52:25;23.80;46.50
41924;DHT22;27613;48.116;11.656;2022-11-15T08:54:51;23.20;45.70
41924;DHT22;27613;48.116;11.656;2022-11-15T08:57:17;24.00;45.20
41924;DHT22;27613;48.116;11.656;2022-11-15T08:59:43;23.90;44.90
41924;DHT22;27613;48.116;11.656;2022-11-15T09:02:13;24.30;44.50
41924;DHT22;27613;48.116;11.656;2022-11-15T09:04:43;25.00;43.60
41924;DHT22;27613;48.116;11.656;2022-11-15T09:07:10;25.50;42.70
41924;DHT22;27613;48.116;11.656;2022-11-15T09:09:36;23.30;43.70
41924;DHT22;27613;48.116;11.656;2022-11-15T09:12:02;23.70;44.20
41924;DHT22;27613;48.116;11.656;2022-11-15T09:14:27;23.30;44.00
41924;DHT22;27613;48.116;11.656;2022-11-15T09:16:53;21.20;46.00
41924;DHT22;27613;48.116;11.656;2022-11-15T09:19:19;23.10;44.70
41924;DHT22;27613;48.116;11.656;2022-11-15T09:21:44;23.40;45.30
41924;DHT22;27613;48.116;11.656;2022-11-15T09:24:10;24.40;43.80
41924;DHT22;27613;48.116;11.656;2022-11-15T09:26:35;24.20;43.30
41924;DHT22;27613;48.116;11.656;2022-11-15T09:29:01;23.60;44.20
41924;DHT22;27613;48.116;11.656;2022-11-15T09:31:27;24.70;43.10
41924;DHT22;27613;48.116;11.656;2022-11-15T09:33:53;25.00;42.40
41924;DHT22;27613;48.116;11.656;2022-11-15T09:36:18;25.10;41.60
41924;DHT22;27613;48.116;11.656;2022-11-15T09:38:44;24.40;42.80
41924;DHT22;27613;48.116;11.656;2022-11-15T09:43:57;25.90;42.10
41924;DHT22;27613;48.116;11.656;2022-11-15T09:49:11;26.60;41.80
41924;DHT22;27613;48.116;11.656;2022-11-15T09:51:40;26.20;40.60
41924;DHT22;27613;48.116;11.656;2022-11-15T09:56:46;25.40;42.90
41924;DHT22;27613;48.116;11.656;2022-11-15T09:59:40;25.50;41.80
41924;DHT22;27613;48.116;11.656;2022-11-15T10:05:12;24.60;42.80
41924;DHT22;27613;48.116;11.656;2022-11-15T10:07:57;25.50;42.60
41924;DHT22;27613;48.116;11.656;2022-11-15T10:11:07;24.20;43.20
41924;DHT22;27613;48.116;11.656;2022-11-15T10:13:29;23.90;43.00
41924;DHT22;27613;48.116;11.656;2022-11-15T10:16:04;24.80;42.80
41924;DHT22;27613;48.116;11.656;2022-11-15T10:21:22;24.80;42.60
41924;DHT22;27613;48.116;11.656;2022-11-15T10:23:49;25.60;41.60
41924;DHT22;27613;48.116;11.656;2022-11-15T10:26:17;25.90;40.80
41924;DHT22;27613;48.116;11.656;2022-11-15T10:28:42;26.40;40.90
41924;DHT22;27613;48.116;11.656;2022-11-15T10:31:26;26.30;41.80
41924;DHT22;27613;48.116;11.656;2022-11-15T10:34:10;25.50;41.10
41924;DHT22;27613;48.116;11.656;2022-11-15T10:36:37;25.60;41.40
41924;DHT22;27613;48.116;11.656;2022-11-15T10:39:03;23.70;41.20
41924;DHT22;27613;48.116;11.656;2022-11-15T10:46:40;25.00;41.70
41924;DHT22;27613;48.116;11.656;2022-11-15T10:52:12;25.40;41.10
41924;DHT22;27613;48.116;11.656;2022-11-15T10:57:21;24.10;43.60
41924;DHT22;27613;48.116;11.656;2022-11-15T10:59:54;26.00;42.10
41924;DHT22;27613;48.116;11.656;2022-11-15T11:04:54;26.10;41.00
41924;DHT22;27613;48.116;11.656;2022-11-15T11:07:25;25.90;41.30
41924;DHT22;27613;48.116;11.656;2022-11-15T11:10:00;26.60;41.00
41924;DHT22;27613;48.116;11.656;2022-11-15T11:12:30;27.60;40.20
41924;DHT22;27613;48.116;11.656;2022-11-15T11:14:58;26.80;38.70
41924;DHT22;27613;48.116;11.656;2022-11-15T11:23:38;27.40;41.10
41924;DHT22;27613;48.116;11.656;2022-11-15T11:29:16;25.90;41.90
41924;DHT22;27613;48.116;11.656;2022-11-15T11:37:03;27.10;40.00
41924;DHT22;27613;48.116;11.656;2022-11-15T11:42:43;27.00;40.40
41924;DHT22;27613;48.116;11.656;2022-11-15T11:48:21;26.50;40.50
41924;DHT22;27613;48.116;11.656;2022-11-15T11:50:49;26.40;40.40
41924;DHT22;27613;48.116;11.656;2022-11-15T11:53:31;25.90;40.50
41924;DHT22;27613;48.116;11.656;2022-11-15T11:56:04;26.00;40.90
41924;DHT22;27613;48.116;11.656;2022-11-15T11:58:39;26.10;40.20
41924;DHT22;27613;48.116;11.656;2022-11-15T12:01:25;26.10;40.60
41924;DHT22;27613;48.116;11.656;2022-11-15T12:03:59;26.10;40.20
41924;DHT22;27613;48.116;11.656;2022-11-15T12:14:58;27.00;39.40
41924;DHT22;27613;48.116;11.656;2022-11-15T12:17:29;26.30;39.60
41924;DHT22;27613;48.116;11.656;2022-11-15T12:20:03;26.40;39.50
41924;DHT22;27613;48.116;11.656;2022-11-15T12:25:15;26.60;39.70
41924;DHT22;27613;48.116;11.656;2022-11-15T12:27:50;25.30;39.70
41924;DHT22;27613;48.116;11.656;2022-11-15T12:30:19;26.30;41.00
41924;DHT22;27613;48.116;11.656;2022-11-15T12:32:59;26.20;39.90
41924;DHT22;27613;48.116;11.656;2022-11-15T12:35:38;25.30;41.40
41924;DHT22;27613;48.116;11.656;2022-11-15T12:38:09;26.20;41.20
41924;DHT22;27613;48.116;11.656;2022-11-15T12:41:11;26.90;39.90
41924;DHT22;27613;48.116;11.656;2022-11-15T12:43:42;27.40;39.60
41924;DHT22;27613;48.116;11.656;2022-11-15T12:59:59;26.50;41.60
41924;DHT22;27613;48.116;11.656;2022-11-15T13:02:33;25.40;41.60
41924;DHT22;27613;48.116;11.656;2022-11-15T13:17:49;25.30;44.20
41924;DHT22;27613;48.116;11.656;2022-11-15T13:23:09;24.70;45.60
41924;DHT22;27613;48.116;11.656;2022-11-15T13:25:57;25.70;42.90
41924;DHT22;27613;48.116;11.656;2022-11-15T13:28:36;25.70;41.40
41924;DHT22;27613;48.116;11.656;2022-11-15T13:33:48;26.50;41.40
41924;DHT22;27613;48.116;11.656;2022-11-15T13:36:23;26.50;42.00
41924;DHT22;27613;48.116;11.656;2022-11-15T13:38:55;26.50;42.10
41924;DHT22;27613;48.116;11.656;2022-11-15T13:41:28;27.20;41.40
41924;DHT22;27613;48.116;11.656;2022-11-15T13:43:54;27.30;40.80
41924;DHT22;27613;48.116;11.656;2022-11-15T13:48:57;25.70;41.90
41924;DHT22;27613;48.116;11.656;2022-11-15T13:54:20;25.90;41.80
41924;DHT22;27613;48.116;11.656;2022-11-15T13:56:49;25.50;42.40
41924;DHT22;27613;48.116;11.656;2022-11-15T14:02:40;23.90;43.20
41924;DHT22;27613;48.116;11.656;2022-11-15T14:05:14;22.70;46.00
41924;DHT22;27613;48.116;11.656;2022-11-15T14:07:55;21.00;48.70
41924;DHT22;27613;48.116;11.656;2022-11-15T14:10:48;20.40;50.80
41924;DHT22;27613;48.116;11.656;2022-11-15T14:13:30;19.80;52.30
41924;DHT22;27613;48.116;11.656;2022-11-15T14:16:20;19.20;53.60
41924;DHT22;27613;48.116;11.656;2022-11-15T14:18:49;19.10;53.60
41924;DHT22;27613;48.116;11.656;2022-11-15T14:21:15;18.80;54.90
41924;DHT22;27613;48.116;11.656;2022-11-15T14:23:41;18.70;56.70
41924;DHT22;27613;48.116;11.656;2022-11-15T14:26:33;18.40;57.30
41924;DHT22;27613;48.116;11.656;2022-11-15T14:29:00;17.90;56.90
41924;DHT22;27613;48.116;11.656;2022-11-15T14:31:42;18.40;56.60
41924;DHT22;27613;48.116;11.656;2022-11-15T14:34:11;18.50;56.40
41924;DHT22;27613;48.116;11.656;2022-11-15T14:36:36;18.50;57.00
41924;DHT22;27613;48.116;11.656;2022-11-15T14:39:02;18.40;57.90
41924;DHT22;27613;48.116;11.656;2022-11-15T14:41:35;18.10;56.00
41924;DHT22;27613;48.116;11.656;2022-11-15T14:44:03;17.80;56.90
41924;DHT22;27613;48.116;11.656;2022-11-15T14:46:30;18.00;57.00
41924;DHT22;27613;48.116;11.656;2022-11-15T14:48:55;17.60;58.80
41924;DHT22;27613;48.116;11.656;2022-11-15T14:51:21;17.40;59.00
41924;DHT22;27613;48.116;11.656;2022-11-15T14:53:47;17.10;60.60
41924;DHT22;27613;48.116;11.656;2022-11-15T14:56:14;16.60;63.00
41924;DHT22;27613;48.116;11.656;2022-11-15T14:58:40;16.30;65.10
41924;DHT22;27613;48.116;11.656;2022-11-15T15:01:24;16.00;65.90
41924;DHT22;27613;48.116;11.656;2022-11-15T15:03:51;15.50;67.10
41924;DHT22;27613;48.116;11.656;2022-11-15T15:06:18;15.00;68.20
41924;DHT22;27613;48.116;11.656;2022-11-15T15:08:44;14.90;68.50
41924;DHT22;27613;48.116;11.656;2022-11-15T15:11:14;14.80;69.40
41924;DHT22;27613;48.116;11.656;2022-11-15T15:13:41;14.60;70.40
41924;DHT22;27613;48.116;11.656;2022-11-15T15:16:07;14.50;71.40
41924;DHT22;27613;48.116;11.656;2022-11-15T15:18:32;14.40;72.20
41924;DHT22;27613;48.116;11.656;2022-11-15T15:20:59;14.20;73.40
41924;DHT22;27613;48.116;11.656;2022-11-15T15:23:27;14.10;74.30
41924;DHT22;27613;48.116;11.656;2022-11-15T15:25:56;13.90;75.30
41924;DHT22;27613;48.116;11.656;2022-11-15T15:28:22;13.80;75.70
41924;DHT22;27613;48.116;11.656;2022-11-15T15:30:47;13.50;76.80
41924;DHT22;27613;48.116;11.656;2022-11-15T15:33:14;13.40;77.30
41924;DHT22;27613;48.116;11.656;2022-11-15T15:35:40;13.20;77.70
41924;DHT22;27613;48.116;11.656;2022-11-15T15:38:06;13.00;78.80
41924;DHT22;27613;48.116;11.656;2022-11-15T15:43:03;12.70;80.20
41924;DHT22;27613;48.116;11.656;2022-11-15T15:45:30;12.60;80.90
41924;DHT22;27613;48.116;11.656;2022-11-15T15:47:56;12.40;81.30
41924;DHT22;27613;48.116;11.656;2022-11-15T15:50:28;12.30;81.90
41924;DHT22;27613;48.116;11.656;2022-11-15T15:52:57;12.20;82.30
41924;DHT22;27613;48.116;11.656;2022-11-15T15:55:23;11.90;83.90
41924;DHT22;27613;48.116;11.656;2022-11-15T15:57:49;12.00;83.90
41924;DHT22;27613;48.116;11.656;2022-11-15T16:00:15;11.90;84.40
41924;DHT22;27613;48.116;11.656;2022-11-15T16:02:41;11.90;84.80
41924;DHT22;27613;48.116;11.656;2022-11-15T16:05:08;11.90;84.80
41924;DHT22;27613;48.116;11.656;2022-11-15T16:07:34;11.70;85.60
41924;DHT22;27613;48.116;11.656;2022-11-15T16:10:00;11.50;87.00
41924;DHT22;27613;48.116;11.656;2022-11-15T16:12:34;11.40;88.00
41924;DHT22;27613;48.116;11.656;2022-11-15T16:15:01;11.50;88.20
41924;DHT22;27613;48.116;11.656;2022-11-15T16:17:30;11.40;88.50
41924;DHT22;27613;48.116;11.656;2022-11-15T16:19:57;11.30;89.80
41924;DHT22;27613;48.116;11.656;2022-11-15T16:22:25;11.20;90.00
41924;DHT22;27613;48.116;11.656;2022-11-15T16:24:51;11.10;90.30
41924;DHT22;27613;48.116;11.656;2022-11-15T16:27:19;11.10;90.60
41924;DHT22;27613;48.116;11.656;2022-11-15T16:29:59;11.10;90.80
41924;DHT22;27613;48.116;11.656;2022-11-15T16:32:30;11.10;90.80
41924;DHT22;27613;48.116;11.656;2022-11-15T16:35:11;11.10;90.60
41924;DHT22;27613;48.116;11.656;2022-11-15T16:37:38;11.20;90.70
41924;DHT22;27613;48.116;11.656;2022-11-15T16:42:42;11.10;90.90
41924;DHT22;27613;48.116;11.656;2022-11-15T16:45:12;11.10;91.00
41924;DHT22;27613;48.116;11.656;2022-11-15T16:54:48;10.90;91.40
41924;DHT22;27613;48.116;11.656;2022-11-15T16:57:38;10.80;91.60
41924;DHT22;27613;48.116;11.656;2022-11-15T17:00:25;10.70;91.80
41924;DHT22;27613;48.116;11.656;2022-11-15T17:07:14;10.60;92.20
41924;DHT22;27613;48.116;11.656;2022-11-15T17:12:53;10.20;93.10
41924;DHT22;27613;48.116;11.656;2022-11-15T17:15:19;10.20;93.20
41924;DHT22;27613;48.116;11.656;2022-11-15T17:17:53;10.20;93.30
41924;DHT22;27613;48.116;11.656;2022-11-15T17:20:20;10.10;93.60
41924;DHT22;27613;48.116;11.656;2022-11-15T17:22:46;10.00;93.90
41924;DHT22;27613;48.116;11.656;2022-11-15T17:25:12;10.10;93.90
41924;DHT22;27613;48.116;11.656;2022-11-15T17:27:38;10.00;93.90
41924;DHT22;27613;48.116;11.656;2022-11-15T17:30:05;9.90;94.10
41924;DHT22;27613;48.116;11.656;2022-11-15T17:32:34;9.90;94.30
41924;DHT22;27613;48.116;11.656;2022-11-15T17:34:59;9.90;94.60
41924;DHT22;27613;48.116;11.656;2022-11-15T17:37:25;9.80;94.80
41924;DHT22;27613;48.116;11.656;2022-11-15T17:39:53;9.70;95.10
41924;DHT22;27613;48.116;11.656;2022-11-15T17:42:19;9.60;95.20
41924;DHT22;27613;48.116;11.656;2022-11-15T17:44:47;9.60;95.60
41924;DHT22;27613;48.116;11.656;2022-11-15T17:47:13;9.40;96.10
41924;DHT22;27613;48.116;11.656;2022-11-15T17:49:38;9.00;97.70
41924;DHT22;27613;48.116;11.656;2022-11-15T17:52:05;8.80;99.20
41924;DHT22;27613;48.116;11.656;2022-11-15T17:54:34;8.90;99.80
41924;DHT22;27613;48.116;11.656;2022-11-15T17:57:02;8.90;99.90
41924;DHT22;27613;48.116;11.656;2022-11-15T17:59:31;8.80;99.90
41924;DHT22;27613;48.116;11.656;2022-11-15T18:01:57;8.60;99.90
41924;DHT22;27613;48.116;11.656;2022-11-15T18:04:37;8.70;99.90
41924;DHT22;27613;48.116;11.656;2022-11-15T18:07:05;8.60;99.90
41924;DHT22;27613;48.116;11.656;2022-11-15T18:09:31;8.70;99.90
41924;DHT22;27613;48.116;11.656;2022-11-15T18:11:57;8.80;99.90
41924;DHT22;27613;48.116;11.656;2022-11-15T18:14:32;8.90;99.90
41924;DHT22;27613;48.116;11.656;2022-11-15T18:17:01;8.90;99.90
41924;DHT22;27613;48.116;11.656;2022-11-15T18:19:29;8.80;99.90
41924;DHT22;27613;48.116;11.656;2022-11-15T18:21:57;8.80;99.90
41924;DHT22;27613;48.116;11.656;2022-11-15T18:24:30;8.80;99.90
41924;DHT22;27613;48.116;11.656;2022-11-15T18:26:59;8.80;99.90
41924;DHT22;27613;48.116;11.656;2022-11-15T18:29:26;8.80;99.90
41924;DHT22;27613;48.116;11.656;2022-11-15T18:31:57;8.80;99.90
41924;DHT22;27613;48.116;11.656;2022-11-15T18:34:27;8.60;99.90
41924;DHT22;27613;48.116;11.656;2022-11-15T18:37:03;8.30;99.90